Time;durP1;ratioP1;P1;durP2;ratioP2;P2;SDS_P1;SDS_P2;PMS_P1;PMS_P2;Temp;Humidity;BMP_temperature;BMP_pressure;BME280_temperature;BME280_humidity;BME280_pressure;Samples;Min_cycle;Max_cycle;Signal;HPM_P1;HPM_P2
2022/08/08 00:02:06;;;;;;;4.18;3.88;;;;;;;17.37;100.00;96910.13;5054390;28;20286;-53
2022/08/08 00:04:42;;;;;;;4.70;3.92;;;;;;;17.35;100.00;96912.16;5054306;28;20206;-53
2022/08/08 00:07:16;;;;;;;4.32;4.03;;;;;;;17.27;100.00;96916.72;5056335;28;20219;-54
2022/08/08 00:09:53;;;;;;;5.30;4.00;;;;;;;17.23;100.00;96915.41;5056829;28;20294;-53
2022/08/08 00:12:22;;;;;;;3.95;3.67;;;;;;;17.23;100.00;96918.91;5058539;28;20290;-53
2022/08/08 00:14:51;;;;;;;4.22;3.83;;;;;;;17.18;100.00;96915.13;5046250;28;20311;-53
2022/08/08 00:17:29;;;;;;;4.13;3.78;;;;;;;17.19;100.00;96927.44;5058104;28;20234;-54
2022/08/08 00:20:00;;;;;;;4.63;4.22;;;;;;;17.13;100.00;96917.47;5057948;28;20217;-53
2022/08/08 00:22:29;;;;;;;4.20;3.90;;;;;;;17.11;100.00;96919.50;5059178;28;20402;-53
2022/08/08 00:24:58;;;;;;;4.57;4.18;;;;;;;17.06;100.00;96911.19;5058524;28;20286;-53
2022/08/08 00:27:27;;;;;;;4.07;3.70;;;;;;;17.06;100.00;96920.03;5058651;28;20262;-53
2022/08/08 00:29:57;;;;;;;5.45;4.93;;;;;;;17.04;100.00;96915.88;5058944;28;20207;-53
2022/08/08 00:32:28;;;;;;;6.10;5.60;;;;;;;16.99;100.00;96912.88;5058836;28;20226;-54
2022/08/08 00:35:10;;;;;;;5.50;5.10;;;;;;;16.95;100.00;96917.75;5058506;28;20687;-53
2022/08/08 00:37:43;;;;;;;4.70;4.27;;;;;;;16.92;100.00;96921.63;5059488;28;20191;-53
2022/08/08 00:40:36;;;;;;;4.60;4.20;;;;;;;17.00;100.00;96912.72;5058501;28;20711;-53
2022/08/08 00:43:27;;;;;;;5.00;4.20;;;;;;;16.99;100.00;96920.91;5060334;28;20652;-54
2022/08/08 00:46:20;;;;;;;6.17;5.67;;;;;;;16.96;100.00;96913.25;5058254;28;20639;-53
2022/08/08 00:49:17;;;;;;;7.10;6.47;;;;;;;16.86;100.00;96906.28;5060949;28;20274;-54
2022/08/08 00:52:16;;;;;;;6.00;5.15;;;;;;;16.89;100.00;96916.63;5052372;28;20210;-52
2022/08/08 00:55:10;;;;;;;6.27;5.20;;;;;;;16.84;100.00;96910.97;5058556;28;20179;-52
2022/08/08 00:58:10;;;;;;;5.57;5.17;;;;;;;16.78;100.00;96910.84;5072698;28;20182;-52
2022/08/08 01:00:42;;;;;;;4.85;4.07;;;;;;;16.75;100.00;96911.19;5076728;28;20179;-53
2022/08/08 01:03:38;;;;;;;4.50;4.20;;;;;;;16.74;100.00;96910.34;5062479;28;20240;-53
2022/08/08 01:06:53;;;;;;;4.57;4.20;;;;;;;16.79;100.00;96899.97;5068064;28;20186;-54
2022/08/08 01:09:51;;;;;;;4.47;4.07;;;;;;;16.77;100.00;96899.31;5070076;28;20203;-53
2022/08/08 01:12:49;;;;;;;4.38;3.90;;;;;;;16.69;100.00;96899.34;5080973;28;20164;-53
2022/08/08 01:15:56;;;;;;;4.40;4.07;;;;;;;16.77;100.00;96893.97;5063871;28;20202;-53
2022/08/08 01:18:48;;;;;;;4.90;4.35;;;;;;;16.69;100.00;96888.66;5063732;28;20260;-53
2022/08/08 01:21:41;;;;;;;5.50;4.50;;;;;;;16.62;100.00;96893.06;5057451;28;20417;-52
2022/08/08 01:24:43;;;;;;;4.32;3.92;;;;;;;16.59;100.00;96882.72;5056859;28;20278;-54
2022/08/08 01:27:47;;;;;;;4.63;4.27;;;;;;;16.55;100.00;96881.38;5050216;28;20581;-53
2022/08/08 01:30:52;;;;;;;4.88;4.47;;;;;;;16.61;100.00;96885.22;5057185;28;20237;-54
2022/08/08 01:34:06;;;;;;;4.43;4.07;;;;;;;16.53;100.00;96887.91;5050914;28;20202;-53
2022/08/08 01:37:26;;;;;;;4.83;4.10;;;;;;;16.50;100.00;96889.09;5056476;28;20294;-53
2022/08/08 01:40:14;;;;;;;5.17;4.20;;;;;;;16.46;100.00;96885.09;5009164;28;20290;-53
2022/08/08 01:42:48;;;;;;;4.77;4.37;;;;;;;16.47;100.00;96896.59;5055733;28;20269;-53
2022/08/08 01:45:28;;;;;;;4.67;4.27;;;;;;;16.40;100.00;96904.47;5055502;28;20309;-54
2022/08/08 01:48:02;;;;;;;4.27;3.97;;;;;;;16.35;100.00;96905.00;5056632;28;20245;-53
2022/08/08 01:50:44;;;;;;;4.75;4.28;;;;;;;16.30;100.00;96902.00;5056282;28;20680;-53
2022/08/08 01:53:32;;;;;;;4.80;4.40;;;;;;;16.28;100.00;96901.34;5056259;28;20707;-53
2022/08/08 01:56:03;;;;;;;4.37;3.97;;;;;;;16.35;100.00;96906.81;5056552;28;20207;-53
2022/08/08 01:58:39;;;;;;;4.72;4.30;;;;;;;16.34;100.00;96907.81;5056295;28;20198;-53
2022/08/08 02:01:14;;;;;;;4.63;4.23;;;;;;;16.27;100.00;96912.19;5056779;28;20214;-53
2022/08/08 02:04:00;;;;;;;4.73;4.43;;;;;;;16.32;100.00;96912.50;5056404;28;20293;-53
2022/08/08 02:06:43;;;;;;;4.80;4.40;;;;;;;16.25;100.00;96919.53;5056343;28;20203;-55
2022/08/08 02:09:18;;;;;;;4.43;4.03;;;;;;;16.26;100.00;96924.69;5043552;28;20245;-54
2022/08/08 02:11:46;;;;;;;4.63;4.23;;;;;;;16.19;100.00;96920.22;5056481;28;20202;-54
2022/08/08 02:14:24;;;;;;;4.47;4.17;;;;;;;16.22;100.00;96922.56;5056030;28;20294;-52
2022/08/08 02:17:02;;;;;;;4.78;3.85;;;;;;;16.20;100.00;96930.72;5056339;28;20234;-54
2022/08/08 02:19:34;;;;;;;4.60;4.30;;;;;;;16.16;100.00;96928.56;5056539;28;20203;-52
2022/08/08 02:24:59;;;;;;;4.70;4.40;;;;;;;16.09;100.00;96930.22;5055959;28;20285;-53
2022/08/08 02:27:33;;;;;;;4.83;4.37;;;;;;;16.11;100.00;96930.91;5055903;28;20207;-54
2022/08/08 02:30:06;;;;;;;4.80;4.37;;;;;;;16.16;100.00;96931.22;5054832;28;20678;-53
2022/08/08 02:33:01;;;;;;;4.57;4.23;;;;;;;16.15;100.00;96926.91;5055237;28;20226;-53
2022/08/08 02:35:51;;;;;;;5.23;4.50;;;;;;;16.18;100.00;96926.56;5046048;28;20309;-52
2022/08/08 02:38:37;;;;;;;4.50;4.07;;;;;;;16.23;100.00;96919.69;5035267;28;20204;-53
2022/08/08 02:41:35;;;;;;;4.17;3.87;;;;;;;16.14;100.00;96922.56;5050973;28;20715;-53
2022/08/08 02:44:27;;;;;;;4.27;3.97;;;;;;;16.13;100.00;96928.91;5055134;28;20516;-55
2022/08/08 02:47:07;;;;;;;4.47;3.97;;;;;;;16.05;100.00;96923.59;5046186;28;20298;-53
2022/08/08 02:49:59;;;;;;;4.43;4.13;;;;;;;15.98;100.00;96914.63;5055522;28;20246;-53
2022/08/08 02:52:42;;;;;;;4.50;4.10;;;;;;;15.99;100.00;96913.59;5052494;28;20298;-53
2022/08/08 02:56:02;;;;;;;4.17;3.80;;;;;;;15.93;100.00;96928.44;5055640;28;20195;-53
2022/08/08 02:59:05;;;;;;;4.13;3.93;;;;;;;15.87;100.00;96935.28;5048938;28;20199;-54
2022/08/08 03:01:58;;;;;;;4.53;4.23;;;;;;;15.83;100.00;96927.81;5043539;28;20210;-54
2022/08/08 03:04:49;;;;;;;4.53;4.13;;;;;;;15.78;100.00;96920.31;5058396;28;20250;-54
2022/08/08 03:07:55;;;;;;;4.30;4.00;;;;;;;15.76;100.00;96916.16;5055153;28;20253;-54
2022/08/08 03:10:46;;;;;;;4.50;4.10;;;;;;;15.72;100.00;96922.81;5054967;28;20210;-54
2022/08/08 03:13:43;;;;;;;4.17;3.77;;;;;;;15.84;100.00;96924.94;5055112;28;20323;-53
2022/08/08 03:16:25;;;;;;;4.27;3.93;;;;;;;15.83;100.00;96925.97;5042304;28;20274;-54
2022/08/08 03:19:33;;;;;;;4.43;4.00;;;;;;;15.80;100.00;96928.94;5054886;28;20649;-54
2022/08/08 03:21:59;;;;;;;4.93;3.83;;;;;;;15.75;100.00;96931.31;5042261;28;20278;-52
2022/08/08 03:24:27;;;;;;;4.23;3.93;;;;;;;15.74;100.00;96929.63;5071301;28;20203;-53
2022/08/08 03:27:00;;;;;;;4.57;4.27;;;;;;;15.70;100.00;96930.97;5066322;28;20211;-53
2022/08/08 03:29:30;;;;;;;4.77;3.80;;;;;;;15.72;100.00;96928.97;5054653;28;20641;-53
2022/08/08 03:34:43;;;;;;;3.97;3.77;;;;;;;15.73;100.00;96933.28;5054236;28;20298;-53
2022/08/08 03:37:11;;;;;;;4.20;3.90;;;;;;;15.74;100.00;96944.78;5054271;28;20650;-53
2022/08/08 03:39:40;;;;;;;4.50;4.20;;;;;;;15.71;100.00;96940.63;5053540;28;20631;-53
2022/08/08 03:42:07;;;;;;;4.27;3.97;;;;;;;15.72;100.00;96944.97;5054228;28;20230;-54
2022/08/08 03:44:34;;;;;;;5.13;4.20;;;;;;;15.66;100.00;96948.28;5053998;28;20221;-53
2022/08/08 03:47:01;;;;;;;4.07;3.67;;;;;;;15.67;100.00;96951.78;5054758;28;20653;-53
2022/08/08 03:49:28;;;;;;;4.20;3.90;;;;;;;15.66;100.00;96956.28;5054531;28;20314;-54
2022/08/08 03:51:56;;;;;;;4.67;4.27;;;;;;;15.66;100.00;96955.47;5054760;28;20306;-53
2022/08/08 03:54:24;;;;;;;4.27;3.97;;;;;;;15.58;100.00;96956.31;5054548;28;20265;-54
2022/08/08 03:56:52;;;;;;;3.97;3.77;;;;;;;15.61;100.00;96958.63;5054514;28;20253;-53
2022/08/08 03:59:19;;;;;;;4.00;3.80;;;;;;;15.57;100.00;96948.47;5041413;28;20203;-54
2022/08/08 04:01:46;;;;;;;4.17;3.77;;;;;;;15.51;100.00;96947.31;5053534;28;20209;-53
2022/08/08 04:04:15;;;;;;;3.93;3.70;;;;;;;15.50;100.00;96948.31;5042256;28;20271;-53
2022/08/08 04:06:57;;;;;;;4.60;4.13;;;;;;;15.51;100.00;96944.66;5054525;28;20678;-52
2022/08/08 04:09:23;;;;;;;4.53;4.20;;;;;;;15.57;100.00;96948.47;5054546;28;20294;-53
2022/08/08 04:11:51;;;;;;;4.33;3.97;;;;;;;15.58;100.00;96942.97;5054261;28;20230;-53
2022/08/08 04:14:19;;;;;;;4.50;4.20;;;;;;;15.56;100.00;96947.63;5045455;28;20204;-53
2022/08/08 04:16:47;;;;;;;4.27;3.87;;;;;;;15.53;100.00;96949.78;5051351;28;20406;-53
2022/08/08 04:19:13;;;;;;;4.00;3.70;;;;;;;15.57;100.00;96953.78;5052302;28;20290;-53
2022/08/08 04:21:40;;;;;;;4.73;4.10;;;;;;;15.51;100.00;96959.81;5050453;28;20298;-53
2022/08/08 04:24:08;;;;;;;4.77;4.33;;;;;;;15.49;100.00;96970.63;5045081;28;20290;-52
2022/08/08 04:26:37;;;;;;;4.37;4.07;;;;;;;15.50;100.00;96963.47;5054338;28;20293;-53
2022/08/08 04:29:05;;;;;;;4.07;3.73;;;;;;;15.50;100.00;96963.47;5054506;28;20238;-54
2022/08/08 04:31:31;;;;;;;4.40;4.00;;;;;;;15.53;100.00;96968.44;5054146;28;20310;-53
2022/08/08 04:33:58;;;;;;;4.80;4.50;;;;;;;15.51;100.00;96971.31;5054513;28;20286;-53
2022/08/08 04:36:25;;;;;;;5.00;4.50;;;;;;;15.55;100.00;96971.81;5054443;28;20207;-53
2022/08/08 04:38:53;;;;;;;5.17;4.50;;;;;;;15.62;100.00;96978.13;5054080;28;20261;-52
2022/08/08 04:41:20;;;;;;;4.57;4.27;;;;;;;15.80;100.00;96971.63;5054052;28;20217;-56
2022/08/08 04:43:47;;;;;;;4.83;4.53;;;;;;;16.01;100.00;96973.78;5053623;28;20294;-54
2022/08/08 04:46:15;;;;;;;4.37;4.03;;;;;;;16.10;100.00;96978.09;5053773;28;20326;-54
2022/08/08 04:48:42;;;;;;;5.10;4.57;;;;;;;16.08;100.00;96992.63;5053701;28;20237;-53
2022/08/08 04:51:11;;;;;;;5.00;4.60;;;;;;;16.27;100.00;96989.56;5054109;28;20549;-54
2022/08/08 04:53:38;;;;;;;4.40;4.10;;;;;;;16.60;100.00;96987.69;5056635;28;20302;-52
2022/08/08 04:56:04;;;;;;;4.53;4.17;;;;;;;16.77;100.00;96995.47;5054364;28;20231;-53
2022/08/08 04:58:31;;;;;;;4.77;4.37;;;;;;;17.12;100.00;96988.78;5057589;28;20550;-52
2022/08/08 05:00:59;;;;;;;4.30;3.92;;;;;;;17.35;99.79;96996.88;5057544;28;20249;-53
2022/08/08 05:03:27;;;;;;;3.95;3.75;;;;;;;17.30;99.03;96999.22;5057431;28;20631;-54
2022/08/08 05:05:54;;;;;;;4.13;3.75;;;;;;;17.31;99.79;96995.53;5057584;28;20207;-54
2022/08/08 05:08:20;;;;;;;3.97;3.70;;;;;;;17.50;99.08;96997.75;5056962;28;20313;-54
2022/08/08 05:10:47;;;;;;;3.75;3.50;;;;;;;17.64;97.01;96998.88;5057446;28;20241;-55
2022/08/08 05:13:14;;;;;;;4.72;3.67;;;;;;;17.49;98.88;96996.09;5057626;28;20294;-53
2022/08/08 05:15:40;;;;;;;3.65;3.35;;;;;;;17.76;99.08;96990.25;5045047;28;20294;-53
2022/08/08 05:18:09;;;;;;;3.35;3.15;;;;;;;17.90;96.01;96992.13;5056973;28;20207;-54
2022/08/08 05:20:37;;;;;;;3.63;3.33;;;;;;;18.09;94.37;97006.03;5055019;28;20203;-54
2022/08/08 05:23:05;;;;;;;3.92;3.67;;;;;;;18.28;92.67;97000.19;5057040;28;20211;-53
2022/08/08 05:25:32;;;;;;;3.65;3.45;;;;;;;18.45;92.60;97008.88;5057232;28;20231;-57
2022/08/08 05:28:01;;;;;;;3.70;3.50;;;;;;;18.37;91.14;97005.25;5057117;28;20302;-53
2022/08/08 05:30:28;;;;;;;3.70;3.30;;;;;;;18.53;89.00;97003.47;5071181;28;20207;-53
2022/08/08 05:32:55;;;;;;;4.00;3.60;;;;;;;18.68;87.49;97004.28;5078433;28;20612;-54
2022/08/08 05:35:23;;;;;;;3.90;3.70;;;;;;;18.81;87.91;97007.97;5076620;28;20207;-53
2022/08/08 05:37:56;;;;;;;4.07;3.78;;;;;;;19.20;81.80;97004.97;5056621;28;20294;-53
2022/08/08 05:40:23;;;;;;;3.78;3.47;;;;;;;19.50;80.03;97004.94;5057237;28;20236;-54
2022/08/08 05:42:51;;;;;;;3.95;3.40;;;;;;;19.59;80.86;96999.25;5056923;28;20303;-54
2022/08/08 05:45:18;;;;;;;3.55;3.15;;;;;;;19.71;80.63;97000.44;5056584;28;20237;-53
2022/08/08 05:47:46;;;;;;;4.13;3.35;;;;;;;19.69;80.93;97002.50;5056689;28;20306;-53
2022/08/08 05:50:15;;;;;;;5.03;3.42;;;;;;;19.69;80.40;97005.16;5055487;28;20308;-54
2022/08/08 05:52:42;;;;;;;4.68;4.30;;;;;;;19.90;78.02;97008.88;5055695;28;20667;-52
2022/08/08 05:55:14;;;;;;;4.40;4.05;;;;;;;19.98;78.55;97004.19;5056285;28;20203;-52
2022/08/08 05:57:41;;;;;;;3.90;3.53;;;;;;;20.05;79.83;97013.13;5056422;28;20206;-55
2022/08/08 06:00:10;;;;;;;4.30;3.90;;;;;;;20.09;76.68;97018.94;5056590;28;20207;-52
2022/08/08 06:05:24;;;;;;;7.05;3.65;;;;;;;20.63;75.19;97022.72;5056716;28;20222;-53
2022/08/08 06:07:53;;;;;;;4.47;3.72;;;;;;;20.75;72.73;97021.16;5056231;28;20211;-54
2022/08/08 06:10:23;;;;;;;4.68;3.65;;;;;;;21.10;72.72;97018.44;5057574;28;20249;-53
2022/08/08 06:12:53;;;;;;;3.88;3.55;;;;;;;21.13;69.30;97023.44;5054306;28;20682;-52
2022/08/08 06:15:19;;;;;;;3.38;3.10;;;;;;;21.40;71.00;97014.44;5056582;28;20225;-54
2022/08/08 06:17:46;;;;;;;4.43;3.50;;;;;;;21.43;67.77;97024.84;5052975;28;20209;-54
2022/08/08 06:20:13;;;;;;;3.58;3.28;;;;;;;21.33;68.30;97035.13;5057161;28;20306;-54
2022/08/08 06:22:40;;;;;;;3.30;3.10;;;;;;;21.62;67.97;97026.75;5056677;28;20199;-53
2022/08/08 06:25:09;;;;;;;5.65;3.45;;;;;;;21.97;68.80;97022.09;5055371;28;20286;-53
2022/08/08 06:27:41;;;;;;;3.63;3.38;;;;;;;22.15;65.42;97024.19;5056768;28;20238;-54
2022/08/08 06:30:09;;;;;;;3.55;3.25;;;;;;;22.15;67.56;97029.56;5055336;28;20302;-54
2022/08/08 06:32:42;;;;;;;3.38;3.17;;;;;;;22.48;65.02;97030.41;5055255;28;20229;-54
2022/08/08 06:35:11;;;;;;;4.82;3.65;;;;;;;22.31;64.83;97029.19;5055593;28;20505;-54
2022/08/08 06:37:39;;;;;;;3.40;3.20;;;;;;;22.75;64.02;97034.75;5055219;28;20297;-53
2022/08/08 06:40:08;;;;;;;3.50;3.20;;;;;;;22.70;65.21;97031.88;5050521;28;20237;-55
2022/08/08 06:42:37;;;;;;;3.58;3.35;;;;;;;22.95;63.11;97032.06;5054281;28;20218;-54
2022/08/08 06:45:06;;;;;;;3.30;3.10;;;;;;;22.93;63.52;97033.28;5054731;28;20579;-53
2022/08/08 06:47:34;;;;;;;3.97;3.58;;;;;;;23.10;64.09;97034.47;5054869;28;20290;-54
2022/08/08 06:50:01;;;;;;;3.38;3.10;;;;;;;23.52;61.92;97038.53;5055330;28;20260;-55
2022/08/08 06:52:28;;;;;;;3.83;3.53;;;;;;;23.74;60.50;97032.59;5054737;28;20207;-53
2022/08/08 06:54:57;;;;;;;4.85;3.40;;;;;;;23.85;61.24;97039.19;5054687;28;20286;-54
2022/08/08 06:57:25;;;;;;;3.50;3.30;;;;;;;23.95;61.36;97036.03;5054086;28;20203;-55
2022/08/08 06:59:53;;;;;;;3.42;3.13;;;;;;;24.13;58.28;97036.13;5054632;28;20595;-54
2022/08/08 07:02:23;;;;;;;3.75;3.45;;;;;;;24.03;57.87;97031.16;5054419;28;20294;-54
2022/08/08 07:04:54;;;;;;;4.20;3.22;;;;;;;24.36;58.60;97024.72;5054724;28;20603;-54
2022/08/08 07:07:30;;;;;;;4.38;3.00;;;;;;;24.45;58.88;97039.63;5054152;28;20223;-54
2022/08/08 07:10:02;;;;;;;3.60;3.25;;;;;;;24.62;57.92;97040.75;5061646;28;20367;-56
2022/08/08 07:12:39;;;;;;;3.67;3.05;;;;;;;24.97;56.45;97046.47;5069806;28;20217;-54
2022/08/08 07:15:09;;;;;;;3.45;3.03;;;;;;;24.98;55.39;97043.53;5065274;28;20199;-54
2022/08/08 07:17:41;;;;;;;3.78;2.70;;;;;;;25.17;56.06;97045.22;5054902;28;20290;-54
2022/08/08 07:20:08;;;;;;;3.70;3.40;;;;;;;25.06;57.14;97043.25;5052814;28;20688;-54
2022/08/08 07:22:38;;;;;;;3.45;3.20;;;;;;;25.17;54.55;97044.38;5054576;28;20199;-54
2022/08/08 07:25:06;;;;;;;2.83;2.63;;;;;;;25.27;54.86;97050.09;5054279;28;20207;-55
2022/08/08 07:27:37;;;;;;;3.00;2.80;;;;;;;25.46;55.63;97043.63;5047027;28;20234;-55
2022/08/08 07:30:06;;;;;;;2.70;2.50;;;;;;;25.39;56.51;97048.28;5054245;28;20234;-55
2022/08/08 07:32:34;;;;;;;3.42;2.70;;;;;;;25.45;56.13;97047.38;5053895;28;20281;-55
2022/08/08 07:35:01;;;;;;;3.10;2.90;;;;;;;25.39;55.83;97048.28;5042085;28;20638;-55
2022/08/08 07:37:28;;;;;;;5.32;2.60;;;;;;;25.74;55.90;97041.22;5054247;28;20211;-54
2022/08/08 07:39:57;;;;;;;4.50;2.85;;;;;;;25.92;54.42;97047.66;5054592;28;20615;-54
2022/08/08 07:42:25;;;;;;;2.75;2.60;;;;;;;25.94;53.67;97048.22;5056501;28;20203;-55
2022/08/08 07:44:52;;;;;;;3.20;2.95;;;;;;;25.87;52.99;97044.78;5063813;28;20255;-54
2022/08/08 07:47:20;;;;;;;6.38;3.10;;;;;;;25.58;54.23;97041.81;5063405;28;20271;-54
2022/08/08 07:49:49;;;;;;;2.90;2.70;;;;;;;25.63;51.40;97052.81;5048199;28;20314;-54
2022/08/08 07:52:16;;;;;;;3.65;2.60;;;;;;;25.52;52.55;97041.91;5055257;28;20265;-54
2022/08/08 07:54:48;;;;;;;3.22;2.92;;;;;;;25.54;53.13;97046.03;5051818;28;20302;-57
2022/08/08 07:57:22;;;;;;;7.03;3.63;;;;;;;25.65;53.94;97042.56;5054113;28;20242;-56
2022/08/08 07:59:57;;;;;;;5.45;2.60;;;;;;;25.63;52.61;97033.84;5054728;28;20209;-56
2022/08/08 08:02:28;;;;;;;3.80;2.70;;;;;;;25.68;53.54;97047.53;5054447;28;20205;-59
2022/08/08 08:04:56;;;;;;;3.10;2.50;;;;;;;25.90;54.69;97047.06;5054473;28;20298;-56
2022/08/08 08:07:25;;;;;;;4.47;2.85;;;;;;;26.12;54.22;97049.00;5053761;28;20206;-56
2022/08/08 08:09:52;;;;;;;4.22;2.90;;;;;;;26.10;53.64;97053.03;5053393;28;20233;-54
2022/08/08 08:12:20;;;;;;;2.85;2.70;;;;;;;25.65;51.97;97053.41;5034486;28;20290;-55
2022/08/08 08:14:52;;;;;;;3.42;3.10;;;;;;;25.69;51.89;97051.06;5036792;28;20620;-54
2022/08/08 08:17:19;;;;;;;2.60;2.50;;;;;;;25.38;53.11;97049.34;5053559;28;20218;-54
2022/08/08 08:19:48;;;;;;;16.27;3.03;;;;;;;25.58;54.67;97052.66;5054223;28;20306;-53
2022/08/08 08:22:17;;;;;;;3.35;3.05;;;;;;;26.01;53.96;97051.69;5054237;28;20299;-53
2022/08/08 08:24:44;;;;;;;3.55;2.70;;;;;;;26.19;53.37;97059.78;5055033;28;20203;-52
2022/08/08 08:27:10;;;;;;;4.75;3.25;;;;;;;26.29;51.88;97054.63;5053754;28;20206;-55
2022/08/08 08:29:39;;;;;;;3.10;2.80;;;;;;;26.33;52.39;97049.56;5057955;28;20673;-54
2022/08/08 08:32:07;;;;;;;2.83;2.72;;;;;;;26.47;51.62;97062.69;5057473;28;20203;-55
2022/08/08 08:34:35;;;;;;;4.72;2.92;;;;;;;26.97;52.00;97051.44;5057374;28;20214;-54
2022/08/08 08:37:02;;;;;;;2.60;2.50;;;;;;;27.10;50.74;97062.06;5058067;28;20238;-54
2022/08/08 08:39:30;;;;;;;2.92;2.70;;;;;;;26.86;50.13;97054.97;5057643;28;20290;-53
2022/08/08 08:41:57;;;;;;;3.92;2.53;;;;;;;27.19;50.88;97057.94;5057413;28;20375;-53
2022/08/08 08:44:25;;;;;;;4.68;3.25;;;;;;;26.87;49.87;97051.22;5057097;28;20202;-54
2022/08/08 08:46:53;;;;;;;2.90;2.60;;;;;;;27.26;51.79;97060.50;5057157;28;20207;-55
2022/08/08 08:49:21;;;;;;;2.58;2.35;;;;;;;27.22;50.10;97054.72;5056539;28;20217;-54
2022/08/08 08:51:49;;;;;;;2.90;2.40;;;;;;;27.26;50.99;97060.50;5057222;28;20601;-55
2022/08/08 08:54:19;;;;;;;3.08;2.80;;;;;;;26.98;49.06;97063.97;5057540;28;20214;-54
2022/08/08 08:56:48;;;;;;;3.00;2.45;;;;;;;27.43;49.22;97062.25;5057688;28;20282;-55
2022/08/08 08:59:15;;;;;;;2.55;2.33;;;;;;;27.60;48.58;97057.75;5057273;28;20211;-53
2022/08/08 09:01:44;;;;;;;2.70;2.60;;;;;;;27.10;46.88;97067.50;5057482;28;20203;-54
2022/08/08 09:04:15;;;;;;;2.95;2.72;;;;;;;27.25;49.81;97059.69;5044464;28;20239;-54
2022/08/08 09:06:42;;;;;;;2.70;2.40;;;;;;;27.34;48.61;97058.28;5056891;28;20199;-55
2022/08/08 09:09:11;;;;;;;3.17;2.65;;;;;;;27.55;49.41;97057.66;5052524;28;20264;-55
2022/08/08 09:11:38;;;;;;;3.10;2.70;;;;;;;27.72;49.49;97059.63;5057100;28;20576;-54
2022/08/08 09:14:08;;;;;;;2.53;2.42;;;;;;;27.69;45.94;97060.94;5050902;28;20218;-55
2022/08/08 09:16:35;;;;;;;3.33;2.55;;;;;;;27.41;47.97;97053.53;5052572;28;20211;-54
2022/08/08 09:19:02;;;;;;;2.63;2.25;;;;;;;27.60;47.26;97060.47;5057416;28;20294;-55
2022/08/08 09:21:30;;;;;;;4.10;2.10;;;;;;;27.74;45.28;97062.94;5057562;28;20231;-55
2022/08/08 09:23:59;;;;;;;3.13;2.10;;;;;;;27.67;45.06;97053.00;5053776;28;20230;-54
2022/08/08 09:26:31;;;;;;;2.20;2.10;;;;;;;27.45;45.80;97054.75;5054925;28;20207;-56
2022/08/08 09:29:01;;;;;;;3.92;2.45;;;;;;;27.26;45.52;97055.91;5056179;28;20278;-53
2022/08/08 09:31:45;;;;;;;2.45;2.13;;;;;;;27.34;47.35;97052.84;5058822;28;20265;-55
2022/08/08 09:34:13;;;;;;;4.57;2.13;;;;;;;27.22;47.32;97060.16;5063643;28;20291;-55
2022/08/08 09:36:43;;;;;;;3.97;2.10;;;;;;;27.32;46.99;97046.81;5068069;28;20225;-54
2022/08/08 09:39:11;;;;;;;5.05;2.20;;;;;;;27.30;45.56;97043.50;5073145;28;20231;-58
2022/08/08 09:41:41;;;;;;;4.03;1.88;;;;;;;27.15;46.28;97049.44;5074528;28;20203;-58
2022/08/08 09:44:15;;;;;;;2.30;1.90;;;;;;;27.56;44.40;97051.16;5068880;28;20215;-54
2022/08/08 09:46:44;;;;;;;1.80;1.70;;;;;;;27.33;43.25;97047.63;5067599;28;20227;-54
2022/08/08 09:49:11;;;;;;;3.17;2.20;;;;;;;27.39;43.36;97049.38;5071977;28;20196;-54
2022/08/08 09:51:42;;;;;;;2.30;2.10;;;;;;;27.67;42.22;97050.28;5072434;28;20223;-53
2022/08/08 09:54:09;;;;;;;2.20;2.00;;;;;;;28.07;43.51;97042.13;5072217;28;20219;-54
2022/08/08 09:56:39;;;;;;;2.15;1.95;;;;;;;28.20;44.14;97041.00;5076011;28;20243;-54
2022/08/08 09:59:07;;;;;;;2.67;1.77;;;;;;;28.34;43.79;97039.63;5067546;28;20933;-54
2022/08/08 10:01:35;;;;;;;2.00;1.80;;;;;;;28.33;43.31;97040.72;5059012;28;20274;-56
2022/08/08 10:04:07;;;;;;;2.50;2.20;;;;;;;28.53;41.60;97037.50;5055987;28;20313;-54
2022/08/08 10:06:42;;;;;;;2.17;1.77;;;;;;;28.64;40.73;97042.03;5056189;28;20217;-55
2022/08/08 10:09:10;;;;;;;1.88;1.77;;;;;;;28.63;40.63;97041.22;5055374;28;20209;-57
2022/08/08 10:11:38;;;;;;;1.58;1.27;;;;;;;28.81;40.65;97042.88;5055933;28;20227;-53
2022/08/08 10:14:06;;;;;;;5.35;1.80;;;;;;;28.84;40.87;97039.66;5054870;28;20213;-54
2022/08/08 10:16:38;;;;;;;1.75;1.65;;;;;;;28.83;39.10;97032.59;5055528;28;20596;-54
2022/08/08 10:19:08;;;;;;;2.90;2.03;;;;;;;28.59;40.71;97028.38;5055954;28;20286;-54
2022/08/08 10:21:36;;;;;;;2.45;1.60;;;;;;;28.67;39.71;97041.56;5055886;28;21164;-56
2022/08/08 10:24:04;;;;;;;1.42;1.42;;;;;;;28.93;39.67;97031.91;5056075;28;20292;-55
2022/08/08 10:26:34;;;;;;;1.77;1.67;;;;;;;28.87;39.73;97036.47;5055418;28;20266;-53
2022/08/08 10:29:12;;;;;;;2.10;1.70;;;;;;;28.52;38.84;97023.06;5054763;28;20691;-53
2022/08/08 10:34:30;;;;;;;3.20;1.40;;;;;;;28.69;40.65;97025.84;5055594;28;20219;-54
2022/08/08 10:36:57;;;;;;;1.88;1.77;;;;;;;28.75;39.54;97032.16;5055696;28;20217;-53
2022/08/08 10:39:27;;;;;;;1.75;1.63;;;;;;;28.89;39.91;97026.13;5055531;28;20294;-53
2022/08/08 10:41:56;;;;;;;2.05;1.90;;;;;;;28.58;40.40;97035.69;5055696;28;20561;-55
2022/08/08 10:44:30;;;;;;;1.90;1.80;;;;;;;28.85;40.26;97032.31;5057231;28;20214;-55
2022/08/08 10:47:08;;;;;;;1.70;1.60;;;;;;;29.01;39.41;97032.31;5055680;28;20207;-52
2022/08/08 10:49:37;;;;;;;1.42;1.42;;;;;;;28.79;38.99;97034.16;5055468;28;20203;-53
2022/08/08 10:52:04;;;;;;;1.55;1.45;;;;;;;28.77;38.19;97024.59;5054859;28;20714;-56
2022/08/08 10:54:31;;;;;;;2.70;1.67;;;;;;;29.15;38.78;97024.63;5055719;28;20259;-55
2022/08/08 10:56:59;;;;;;;1.80;1.70;;;;;;;28.86;38.63;97020.38;5048210;28;20207;-54
2022/08/08 10:59:26;;;;;;;1.85;1.58;;;;;;;28.79;39.50;97022.44;5047684;28;20289;-55
2022/08/08 11:01:53;;;;;;;1.92;1.83;;;;;;;28.96;40.98;97028.69;5046193;28;20707;-55
2022/08/08 11:04:20;;;;;;;1.60;1.33;;;;;;;29.13;39.64;97010.41;5051061;28;20202;-55
2022/08/08 11:06:59;;;;;;;1.75;1.65;;;;;;;28.65;39.70;97019.19;5051551;28;20246;-55
2022/08/08 11:09:25;;;;;;;2.42;1.50;;;;;;;28.86;39.44;97014.94;5051304;28;20199;-53
2022/08/08 11:11:53;;;;;;;1.70;1.60;;;;;;;29.02;41.29;97016.78;5051725;28;20305;-53
2022/08/08 11:14:20;;;;;;;2.35;1.63;;;;;;;29.04;39.02;97015.47;5050206;28;20199;-54
2022/08/08 11:16:47;;;;;;;3.67;1.65;;;;;;;29.01;38.30;97009.72;5047815;28;20282;-52
2022/08/08 11:19:14;;;;;;;2.95;1.70;;;;;;;29.23;39.33;97017.91;5049715;28;20207;-53
2022/08/08 11:21:44;;;;;;;1.80;1.70;;;;;;;29.22;38.48;97021.72;5050743;28;20226;-53
2022/08/08 11:24:14;;;;;;;1.75;1.65;;;;;;;29.30;39.61;97013.13;5049104;28;20305;-53
2022/08/08 11:26:42;;;;;;;2.63;1.92;;;;;;;29.36;38.30;97015.69;5051846;28;20274;-53
2022/08/08 11:29:09;;;;;;;1.58;1.48;;;;;;;29.54;38.29;97020.81;5050300;28;20615;-53
2022/08/08 11:31:40;;;;;;;1.90;1.80;;;;;;;29.00;39.10;97016.22;5048662;28;20219;-52
2022/08/08 11:34:07;;;;;;;2.00;1.80;;;;;;;29.15;38.31;97002.81;5047598;28;20207;-53
2022/08/08 11:36:35;;;;;;;3.63;1.98;;;;;;;29.44;38.22;97009.75;5050218;28;20264;-53
2022/08/08 11:39:02;;;;;;;3.05;1.95;;;;;;;29.53;38.96;97007.44;5047569;28;20677;-53
2022/08/08 11:41:35;;;;;;;2.47;1.90;;;;;;;29.22;37.86;97000.75;5046755;28;20245;-52
2022/08/08 11:44:04;;;;;;;1.70;1.30;;;;;;;29.50;39.42;97003.31;5046015;28;20286;-52
2022/08/08 11:46:33;;;;;;;1.85;1.65;;;;;;;29.25;38.31;96994.78;5048875;28;20231;-53
2022/08/08 11:49:02;;;;;;;2.42;1.52;;;;;;;29.28;38.90;97005.19;5051436;28;20199;-53
2022/08/08 11:51:29;;;;;;;1.80;1.70;;;;;;;29.46;39.37;96995.91;5054337;28;20219;-53
2022/08/08 11:53:58;;;;;;;1.80;1.70;;;;;;;29.61;39.38;97005.09;5053217;28;20203;-52
2022/08/08 11:56:25;;;;;;;1.63;1.52;;;;;;;29.50;39.46;96989.69;5053810;28;20214;-53
2022/08/08 11:58:55;;;;;;;1.92;1.70;;;;;;;29.28;39.77;96994.31;5065580;28;20699;-53
2022/08/08 12:01:31;;;;;;;1.60;1.50;;;;;;;29.31;38.82;96991.06;5069610;28;20230;-53
2022/08/08 12:03:58;;;;;;;3.92;1.83;;;;;;;29.24;39.11;96995.03;5070042;28;20219;-54
2022/08/08 12:06:25;;;;;;;2.15;1.95;;;;;;;29.39;39.19;96989.81;5058466;28;20290;-52
2022/08/08 12:08:52;;;;;;;2.45;1.75;;;;;;;29.51;39.47;96979.63;5058018;28;20328;-53